NCAR-RAP Real-Time Weather Data

Output produced by METARs form (23 June 2018  15:28 UTC)
found at http://weather.rap.ucar.edu/surface/
 
RJOK 231100Z 05003KT 9999 -SHRA FEW005 SCT009 BKN010 22/20 Q1004
RJOK 231000Z 09003KT 9999 -SHRA FEW005 SCT008 BKN010 22/20 Q1004
RJOK 230900Z 17003KT 9999 -SHRA FEW010 SCT015 BKN020 22/20 Q1004
RJOK 230800Z 22006KT 9999 -RA FEW010 SCT020 BKN050 22/19 Q1004
RJOK 230700Z 15004KT 9999 FEW015 SCT020 BKN040 23/19 Q1003
RJOK 230600Z 16004KT 130V230 9999 FEW015 SCT050 BKN/// 23/19 Q1003
RJOK 230500Z VRB02KT 9999 FEW005 SCT015 BKN/// 23/20 Q1003
RJOK 230400Z 27006KT 9999 -SHRA FEW003 SCT025 BKN080 21/19 Q1003
RJOK 230325Z 32004KT 5000 -SHRA BR FEW001 SCT010 BKN025 19/18 Q1003 RMK 1ST001 3ST010 5CU025 A2964 P/FR
RJOK 230300Z 32003KT 4000 SHRA BR FEW003 SCT008 BKN025 19/18 Q1005
RJOK 230242Z 30009KT 2500 R32/1800U SHRA BR FEW003 SCT005 BKN008 19/18 Q1005 RMK 1ST003 3ST005 5ST008 A2969
RJOK 230231Z 30010KT 2200 R32/1400VP1800U SHRA BR FEW003 SCT006 BKN010 19/18 Q1005 RMK 1ST003 3ST006 5ST010 A2969
RJOK 230225Z 31010KT 2000 R32/1400VP1800D SHRA BR FEW003 SCT006 BKN010 20/18 Q1005 RMK 1ST003 3ST006 5ST010 A2969
RJOK 230217Z 31010KT 2000 SHRA BR FEW003 SCT007 BKN015 20/18 Q1005 RMK 1ST003 3ST007 5CU015 A2968
RJOK 230212Z 31008KT 3000 -SHRA BR FEW003 SCT010 BKN020 20/18 Q1005 RMK 1ST003 3ST010 5CU020 A2968
RJOK 230200Z 30006KT 4000 -SHRA BR FEW003 SCT020 BKN030 19/18 Q1004
RJOK 230119Z 23003KT 3500 SHRA BR FEW007 SCT015 BKN030 19/17 Q1004 RMK 1ST007 3CU015 6CU030 A2967
RJOK 230100Z 27005KT 3500 -SHRA BR FEW007 SCT015 BKN030 19/17 Q1004
RJOK 230028Z 27007KT 4000 SHRA BR FEW007 SCT020 BKN030 20/17 Q1005 RMK 1ST007 3CU020 6CU030 A2968
RJOK 230000Z 28007KT 9999 -SHRA FEW007 SCT020 BKN035 20/17 Q1004
RJOK 222300Z 35004KT 9999 -SHRA FEW010 BKN045 BKN080 21/17 Q1003
RJOK 222200Z 01006KT 9999 -SHRA FEW003 SCT035 BKN050 20/17 Q1004
RJOK 222139Z 34007KT 9999 -SHRA FEW003 SCT030 BKN050 20/17 Q1005 RMK 1ST003 3CU030 5SC050 A2969
RJOK 222128Z 35006KT 9999 SHRA FEW003 SCT020 BKN035 20/18 Q1005 RMK 1ST003 3CU020 5CU035 A2968
RJOK 222110Z 36004KT 320V030 9999 -RA FEW003 SCT035 BKN050 20/17 Q1005 RMK 1ST003 3CU035 6SC050 A2968
RJOK 221100Z 21003KT 170V260 9999 FEW014 SCT020 BKN/// 24/21 Q1009
RJOK 221000Z 16003KT 9999 FEW015 BKN/// 24/20 Q1009
RJOK 220900Z 19003KT 150V220 9999 FEW010 BKN015 BKN/// 25/20 Q1009
RJOK 220800Z VRB02KT 9999 FEW010 SCT015 BKN/// 25/20 Q1009
RJOK 220700Z 19004KT 130V230 9999 SCT013 BKN/// 26/21 Q1009
RJOK 220600Z 16006KT 130V200 9999 SCT015 BKN/// 26/20 Q1008
RJOK 220500Z 19007KT 140V210 9999 SCT015 BKN/// 26/20 Q1009
RJOK 220400Z 19008KT 150V220 9999 FEW030 BKN/// 26/19 Q1009
RJOK 220300Z 20008KT 070V230 9999 FEW030 SCT/// 26/19 Q1009
RJOK 220200Z 18004KT 140V220 9999 FEW030 BKN/// 25/17 Q1009
RJOK 220100Z 15003KT 100V180 9999 FEW030 BKN/// 25/16 Q1010
RJOK 220000Z VRB02KT 9999 FEW025 SCT170 BKN/// 25/17 Q1010
RJOK 212300Z 35006KT 9999 FEW015 BKN/// 23/17 Q1010
RJOK 212200Z 36005KT 9999 FEW010 BKN/// 21/17 Q1010
RJOK 212110Z 32005KT 9999 FEW010 BKN/// 19/16 Q1009 RMK 1ST010 A2982
RJOK 211100Z 06003KT 9999 FEW035 BKN/// 21/18 Q1008
RJOK 211000Z 13002KT 9999 FEW030 SCT170 BKN/// 23/18 Q1007
RJOK 210900Z 16003KT 9999 FEW025 BKN/// 24/17 Q1007
RJOK 210800Z 18006KT 9999 FEW025 SCT/// 25/16 Q1006
RJOK 210700Z 20009KT 9999 FEW025 BKN/// 25/16 Q1005
RJOK 210600Z 20008KT 9999 FEW020 SCT170 BKN/// 25/18 Q1005
RJOK 210500Z 22004KT 180V250 9999 FEW020 SCT160 BKN/// 26/19 Q1005
RJOK 210400Z VRB02KT 9999 FEW020 SCT160 BKN/// 25/18 Q1004